Watauga, Texas
Current Conditions -  °F | °C
As of 6:53 AM on Saturday 20 Dec 2014 (Local Time) from KFTW Reporting Station
Haze Haze  
Wind Chill:   Ceiling: 1600
Heat Index:   Visibility: 6mi
Dew Point:   Wind: 3mph
Humidity: 83%   Direction: 40°NE
Pressure: 30.23"   Gusts: NA
Location:  32.8687°N, 97.2516°W
Report Text: KFTW 201253Z AUTO 04003KT 6SM HZ OVC016 08/05 A3023 RMK AO2 SLP235 T00780050
Loading
Personal Weather Stations






























Interactive Weather Map New forecast layout! Learn more

10-Day Weather Forecast

Advertisements
Track Severe Weather on mobile